Terminal Aerodrome Forecast
Issued by NWS Wilmington, OH

Current Version | Previous Version | Text Only | Print | Product List | Glossary Off
Versions: 1 2 3 4 5 6 7 8 9 10 11 12 13 14 15 16 17 18 19 20 21 22

019
FTUS41 KILN 200102 AAA
TAFILN
TAF AMD
KILN 200102Z 2001/2024 23005KT P6SM SCT250
      TEMPO 2001/2005 4SM BR
     FM200500 VRB03KT 4SM BR BKN015
     FM200900 00000KT 1SM BR OVC008
     FM201500 13004KT P6SM SCT015
     FM201800 14006KT P6SM SCT200=

USA.gov is the U.S. government's official web portal to all federal, state and local government web resources and services.